Lisbon, New York
Current Conditions -  °F | °C
As of 1:53 PM on Friday 21 Nov 2014 (Local Time) from KMSS Reporting Station
Clear Clear  
Wind Chill: 12°   Ceiling: Unl
Heat Index: 23°   Visibility: 10mi
Dew Point:   Wind: 12mph
Humidity: 48%   Direction: 260°W
Pressure: 30.31"   Gusts: 23mph
Location:  44.73°N, 75.32°W
Report Text: KMSS 211853Z AUTO 26010G20KT 10SM CLR M05/M14 A3031 RMK AO2 SLP270 T10501144
Loading
Personal Weather Stations






























Interactive Weather Map New forecast layout! Learn more

10-Day Weather Forecast

Advertisements
Track Severe Weather on mobile